Time;durP1;ratioP1;P1;durP2;ratioP2;P2;SDS_P1;SDS_P2;PMS_P1;PMS_P2;Temp;Humidity;BMP_temperature;BMP_pressure;BME280_temperature;BME280_humidity;BME280_pressure;Samples;Min_cycle;Max_cycle;Signal;HPM_P1;HPM_P2
2022/09/16 00:02:21;;;;;;;9.00;1.75;;;;;;;;;;6173426;23;20108;-64
2022/09/16 00:04:47;;;;;;;4.82;1.75;;;;;;;;;;6174918;23;20017;-64
2022/09/16 00:07:14;;;;;;;5.38;1.27;;;;;;;;;;6173380;23;20049;-64
2022/09/16 00:09:40;;;;;;;5.32;1.30;;;;;;;;;;6174362;23;20021;-64
2022/09/16 00:12:06;;;;;;;6.38;1.73;;;;;;;;;;6174280;23;20024;-64
2022/09/16 00:14:33;;;;;;;3.25;1.30;;;;;;;;;;6175686;23;20365;-65
2022/09/16 00:16:59;;;;;;;2.08;1.10;;;;;;;;;;6176250;23;20023;-64
2022/09/16 00:19:25;;;;;;;4.25;1.55;;;;;;;;;;6175487;23;20017;-64
2022/09/16 00:21:51;;;;;;;2.53;0.90;;;;;;;;;;6174551;23;20020;-64
2022/09/16 00:24:17;;;;;;;3.35;0.98;;;;;;;;;;6176449;23;20071;-63
2022/09/16 00:26:43;;;;;;;3.38;1.10;;;;;;;;;;6177090;23;20017;-64
2022/09/16 00:29:09;;;;;;;3.70;0.95;;;13.90;99.90;;;;;;6175002;23;20020;-64
2022/09/16 00:31:35;;;;;;;6.72;1.23;;;13.40;99.90;;;;;;6177182;23;20096;-64
2022/09/16 00:34:02;;;;;;;2.85;1.20;;;;;;;;;;6175322;23;20402;-64
2022/09/16 00:36:29;;;;;;;3.47;1.25;;;;;;;;;;6175825;23;20060;-64
2022/09/16 00:38:55;;;;;;;1.60;0.85;;;;;;;;;;6176019;23;20052;-64
2022/09/16 00:41:24;;;;;;;2.53;0.85;;;;;;;;;;6176899;23;20096;-64
2022/09/16 00:43:50;;;;;;;6.43;1.17;;;;;;;;;;6177140;23;20288;-65
2022/09/16 00:46:19;;;;;;;4.32;1.15;;;;;;;;;;6176205;23;20057;-64
2022/09/16 00:48:45;;;;;;;5.22;1.60;;;;;;;;;;6176606;23;20025;-64
2022/09/16 00:51:12;;;;;;;5.53;1.30;;;;;;;;;;6174000;23;20107;-64
2022/09/16 00:53:44;;;;;;;4.05;1.27;;;;;;;;;;6176266;23;20020;-64
2022/09/16 00:56:12;;;;;;;2.78;1.38;;;;;;;;;;6176408;23;20017;-64
2022/09/16 00:58:42;;;;;;;5.20;1.38;;;;;;;;;;6174585;23;20350;-64
2022/09/16 01:01:08;;;;;;;5.82;2.42;;;;;;;;;;6176302;23;20017;-64
2022/09/16 01:03:37;;;;;;;6.80;1.20;;;;;;;;;;6175277;23;20071;-64
2022/09/16 01:06:04;;;;;;;5.70;1.40;;;;;;;;;;6175597;23;20017;-64
2022/09/16 01:08:30;;;;;;;5.97;1.10;;;;;;;;;;6176261;23;20432;-64
2022/09/16 01:10:56;;;;;;;11.20;1.90;;;;;;;;;;6176116;23;20067;-65
2022/09/16 01:13:22;;;;;;;10.23;1.98;;;;;;;;;;6176570;23;20052;-65
2022/09/16 01:15:58;;;;;;;6.00;1.70;;;;;;;;;;6176200;23;20025;-64
2022/09/16 01:18:30;;;;;;;8.38;1.75;;;;;;;;;;6176221;23;20021;-64
2022/09/16 01:20:59;;;;;;;4.53;1.30;;;;;;;;;;6174094;23;20325;-65
2022/09/16 01:23:28;;;;;;;8.25;1.52;;;;;;;;;;6176252;23;20020;-64
2022/09/16 01:26:13;;;;;;;3.40;1.60;;;;;;;;;;6176122;23;20333;-64
2022/09/16 01:28:55;;;;;;;5.32;1.52;;;13.50;99.90;;;;;;6176144;23;20493;-65
2022/09/16 01:31:31;;;;;;;5.13;1.63;;;13.30;99.90;;;;;;6176509;23;20055;-65
2022/09/16 01:34:18;;;;;;;3.05;1.30;;;13.20;99.90;;;;;;6176104;23;20024;-64
2022/09/16 01:37:12;;;;;;;7.57;1.50;;;13.10;99.90;;;;;;6175183;23;20087;-64
2022/09/16 01:39:53;;;;;;;4.47;1.52;;;13.20;99.90;;;;;;6167889;23;20071;-64
2022/09/16 01:42:46;;;;;;;4.45;1.65;;;13.20;99.90;;;;;;6146123;23;20331;-64
2022/09/16 01:45:41;;;;;;;6.15;1.75;;;13.10;99.90;;;;;;6141893;23;20021;-64
2022/09/16 01:48:23;;;;;;;3.42;1.00;;;13.10;99.90;;;;;;6146764;23;20089;-65
2022/09/16 01:51:10;;;;;;;4.95;1.73;;;13.20;99.90;;;;;;6145938;23;20449;-63
2022/09/16 01:53:42;;;;;;;4.47;1.38;;;13.10;99.90;;;;;;6146439;23;20109;-64
2022/09/16 01:56:15;;;;;;;21.92;2.45;;;13.10;99.90;;;;;;6146614;23;20465;-64
2022/09/16 01:58:53;;;;;;;;;;;13.10;99.90;;;;;;6147248;23;20014;-64
2022/09/16 02:01:31;;;;;;;5.57;1.27;;;13.10;99.90;;;;;;6146572;23;20425;-64
2022/09/16 02:04:04;;;;;;;4.15;1.60;;;13.10;99.90;;;;;;6146015;23;20014;-64
2022/09/16 02:06:32;;;;;;;3.13;1.00;;;13.10;99.90;;;;;;6145573;23;20071;-64
2022/09/16 02:09:11;;;;;;;3.20;1.08;;;13.20;99.90;;;;;;6145891;23;20056;-64
2022/09/16 02:11:38;;;;;;;4.68;1.77;;;13.10;99.90;;;;;;6146040;23;20017;-63
2022/09/16 02:14:18;;;;;;;6.03;1.88;;;13.20;99.90;;;;;;6146347;23;20569;-64
2022/09/16 02:16:59;;;;;;;6.70;1.50;;;13.10;99.90;;;;;;6146470;23;20017;-64
2022/09/16 02:19:43;;;;;;;6.65;2.17;;;13.10;99.90;;;;;;6145878;23;20018;-64
2022/09/16 02:22:14;;;;;;;3.00;1.23;;;13.10;99.90;;;;;;6145787;23;20028;-65
2022/09/16 02:24:44;;;;;;;12.55;2.67;;;13.10;99.90;;;;;;6145897;23;20013;-64
2022/09/16 02:27:12;;;;;;;5.90;1.48;;;;;;;;;;6144041;23;20101;-64
2022/09/16 02:29:48;;;;;;;5.60;2.03;;;;;;;;;;6146713;23;20025;-65
2022/09/16 02:32:15;;;;;;;5.97;1.90;;;;;;;;;;6143449;23;20516;-65
2022/09/16 02:34:44;;;;;;;7.43;2.75;;;;;;;;;;6145975;23;20088;-64
2022/09/16 02:37:22;;;;;;;4.20;1.38;;;;;;;;;;6145018;23;20099;-65
2022/09/16 02:39:49;;;;;;;6.35;2.42;;;;;;;;;;6144967;23;20457;-65
2022/09/16 02:42:16;;;;;;;3.30;1.90;;;;;;;;;;6145720;23;20439;-65
2022/09/16 02:44:43;;;;;;;6.15;1.73;;;;;;;;;;6144848;23;20021;-64
2022/09/16 02:47:09;;;;;;;6.88;2.22;;;;;;;;;;6145086;23;20022;-65
2022/09/16 02:49:41;;;;;;;6.05;2.08;;;;;;;;;;6149708;23;20065;-64
2022/09/16 02:52:27;;;;;;;3.75;2.13;;;;;;;;;;6145506;23;20092;-63
2022/09/16 02:55:00;;;;;;;6.40;2.35;;;;;;;;;;6144892;23;20017;-64
2022/09/16 02:57:27;;;;;;;5.85;1.85;;;;;;;;;;6145219;23;20049;-64
2022/09/16 02:59:53;;;;;;;3.20;2.03;;;;;;;;;;6145958;23;20028;-64
2022/09/16 03:02:20;;;;;;;4.35;1.50;;;;;;;;;;6145790;23;20014;-65
2022/09/16 03:04:47;;;;;;;4.32;1.70;;;;;;;;;;6144676;23;20017;-64
2022/09/16 03:07:13;;;;;;;6.95;1.83;;;;;;;;;;6144902;23;20639;-65
2022/09/16 03:09:42;;;;;;;5.25;1.65;;;;;;;;;;6144795;23;20395;-65
2022/09/16 03:12:14;;;;;;;7.55;1.90;;;;;;;;;;6143800;23;20032;-64
2022/09/16 03:14:49;;;;;;;5.90;1.92;;;;;;;;;;6145492;23;20017;-65
2022/09/16 03:17:15;;;;;;;7.03;2.03;;;;;;;;;;6145624;23;20021;-64
2022/09/16 03:19:45;;;;;;;7.38;1.77;;;;;;;;;;6145420;23;20029;-64
2022/09/16 03:22:15;;;;;;;4.50;2.22;;;;;;;;;;6144778;23;20005;-64
2022/09/16 03:24:59;;;;;;;6.85;2.00;;;;;;;;;;6143165;23;20013;-63
2022/09/16 03:27:36;;;;;;;8.13;2.47;;;;;;;;;;6119441;23;20080;-64
2022/09/16 03:30:02;;;;;;;10.57;3.45;;;;;;;;;;6145112;23;20083;-64
2022/09/16 03:32:34;;;;;;;10.27;2.60;;;;;;;;;;6144075;23;20017;-64
2022/09/16 03:35:20;;;;;;;7.28;2.08;;;;;;;;;;6145527;23;20056;-64
2022/09/16 03:37:47;;;;;;;10.55;3.15;;;;;;;;;;6117474;23;20040;-64
2022/09/16 03:40:15;;;;;;;7.22;2.33;;;;;;;;;;6143985;23;20052;-64
2022/09/16 03:42:42;;;;;;;7.72;2.63;;;;;;;;;;6143449;23;20040;-64
2022/09/16 03:45:09;;;;;;;6.00;1.80;;;;;;;;;;6143840;23;20017;-65
2022/09/16 03:47:35;;;;;;;11.88;2.55;;;;;;;;;;6145704;23;20029;-64
2022/09/16 03:50:03;;;;;;;22.42;4.05;;;;;;;;;;6143530;23;20025;-64
2022/09/16 03:52:29;;;;;;;8.60;2.85;;;;;;;;;;6144522;23;20025;-64
2022/09/16 03:54:55;;;;;;;8.30;2.25;;;;;;;;;;6144616;23;20437;-65
2022/09/16 03:57:21;;;;;;;9.05;2.72;;;;;;;;;;6144832;23;20018;-64
2022/09/16 03:59:47;;;;;;;8.90;2.55;;;;;;;;;;6145031;23;20426;-64
2022/09/16 04:02:14;;;;;;;8.80;2.28;;;;;;;;;;6142483;23;20056;-64
2022/09/16 04:04:40;;;;;;;11.18;2.55;;;;;;;;;;6143899;23;20493;-64
2022/09/16 04:07:06;;;;;;;6.38;2.42;;;;;;;;;;6144008;23;20045;-65
2022/09/16 04:09:32;;;;;;;9.38;1.95;;;;;;;;;;6144480;23;20021;-65
2022/09/16 04:11:58;;;;;;;13.90;2.97;;;;;;;;;;6145452;23;20017;-64
2022/09/16 04:14:24;;;;;;;8.00;2.15;;;;;;;;;;6143222;23;20021;-65
2022/09/16 04:16:50;;;;;;;10.35;2.20;;;;;;;;;;6144682;23;20021;-64
2022/09/16 04:19:16;;;;;;;7.28;2.50;;;;;;;;;;6145410;23;20009;-64
2022/09/16 04:21:43;;;;;;;8.05;2.25;;;;;;;;;;6144349;23;20450;-64
2022/09/16 04:24:09;;;;;;;13.20;3.28;;;13.10;99.90;;;;;;6145130;23;20010;-64
2022/09/16 04:26:35;;;;;;;8.93;2.38;;;12.80;99.90;;;;;;6145300;23;20417;-65
2022/09/16 04:29:01;;;;;;;7.75;2.45;;;12.70;99.90;;;;;;6145234;23;20014;-65
2022/09/16 04:31:26;;;;;;;18.50;2.42;;;12.70;99.90;;;;;;6144881;23;20024;-65
2022/09/16 04:33:52;;;;;;;14.38;2.65;;;12.70;99.90;;;;;;6144966;23;20444;-64
2022/09/16 04:36:19;;;;;;;9.77;2.70;;;12.60;99.90;;;;;;6143724;23;20330;-64
2022/09/16 04:38:46;;;;;;;7.13;2.10;;;12.60;99.90;;;;;;6118331;23;20060;-64
2022/09/16 04:41:15;;;;;;;5.63;2.25;;;;;;;;;;6144987;23;20009;-64
2022/09/16 04:43:41;;;;;;;8.45;1.95;;;12.60;99.90;;;;;;6144022;23;20430;-64
2022/09/16 04:46:07;;;;;;;5.88;1.75;;;;;;;;;;6144874;23;20105;-64
2022/09/16 04:48:34;;;;;;;4.57;1.75;;;;;;;;;;6143664;23;20108;-64
2022/09/16 04:51:07;;;;;;;6.47;2.08;;;;;;;;;;6143523;23;20021;-64
2022/09/16 04:53:35;;;;;;;8.80;2.08;;;;;;;;;;6144678;23;20026;-64
2022/09/16 04:56:05;;;;;;;5.10;1.85;;;12.60;99.90;;;;;;6143252;23;20014;-64
2022/09/16 04:58:30;;;;;;;6.90;1.67;;;12.50;99.90;;;;;;6144984;23;20036;-64
2022/09/16 05:01:03;;;;;;;7.28;2.00;;;12.40;99.90;;;;;;6144534;23;20469;-64
2022/09/16 05:03:29;;;;;;;6.82;2.28;;;12.40;99.90;;;;;;6144401;23;20013;-64
2022/09/16 05:06:03;;;;;;;4.88;1.40;;;12.40;99.90;;;;;;6145744;23;20108;-65
2022/09/16 05:08:29;;;;;;;6.95;2.42;;;12.40;99.90;;;;;;6146280;23;20084;-64
2022/09/16 05:10:55;;;;;;;7.50;2.08;;;12.40;99.90;;;;;;6145810;23;20055;-64
2022/09/16 05:13:22;;;;;;;6.05;1.98;;;12.30;99.90;;;;;;6146822;23;20013;-64
2022/09/16 05:15:48;;;;;;;8.18;2.22;;;12.30;99.90;;;;;;6144696;23;20021;-65
2022/09/16 05:18:13;;;;;;;6.50;2.00;;;12.30;99.90;;;;;;6146065;23;20013;-64
2022/09/16 05:20:39;;;;;;;8.15;2.60;;;12.40;99.90;;;;;;6145973;23;20022;-64
2022/09/16 05:23:05;;;;;;;7.40;2.20;;;12.40;99.90;;;;;;6143531;23;20017;-64
2022/09/16 05:25:32;;;;;;;5.10;2.53;;;12.40;99.90;;;;;;6142733;23;20021;-64
2022/09/16 05:28:00;;;;;;;13.40;4.05;;;12.40;99.90;;;;;;6117514;23;20013;-64
2022/09/16 05:30:26;;;;;;;7.65;2.22;;;12.50;99.90;;;;;;6138950;23;20325;-64
2022/09/16 05:32:54;;;;;;;7.30;2.15;;;12.50;99.90;;;;;;6141817;23;20052;-64
2022/09/16 05:35:20;;;;;;;5.32;2.28;;;12.50;99.90;;;;;;6144827;23;20094;-64
2022/09/16 05:37:48;;;;;;;6.85;1.77;;;12.50;99.90;;;;;;6142329;23;20021;-64
2022/09/16 05:40:13;;;;;;;6.07;1.95;;;12.50;99.90;;;;;;6145139;23;20053;-64
2022/09/16 05:42:39;;;;;;;7.45;2.35;;;12.50;99.90;;;;;;6145735;23;20041;-64
2022/09/16 05:45:06;;;;;;;11.40;2.42;;;12.40;99.90;;;;;;6146854;23;20024;-64
2022/09/16 05:47:31;;;;;;;6.88;1.80;;;12.50;99.90;;;;;;6145308;23;20022;-64
2022/09/16 05:49:57;;;;;;;8.80;2.00;;;12.50;99.90;;;;;;6147204;23;20356;-64
2022/09/16 05:52:24;;;;;;;3.80;1.75;;;12.50;99.90;;;;;;6140843;23;20501;-64
2022/09/16 05:54:50;;;;;;;6.40;2.35;;;12.50;99.90;;;;;;6144099;23;20060;-64
2022/09/16 05:57:15;;;;;;;6.22;2.05;;;12.50;99.90;;;;;;6145930;23;20014;-64
2022/09/16 05:59:41;;;;;;;8.85;2.45;;;12.40;99.90;;;;;;6118889;23;20021;-64
2022/09/16 06:02:08;;;;;;;5.28;2.15;;;12.50;99.90;;;;;;6145382;23;20643;-64
2022/09/16 06:04:34;;;;;;;6.53;1.95;;;12.50;99.90;;;;;;6146411;23;20013;-64
2022/09/16 06:07:00;;;;;;;7.47;2.03;;;12.50;99.90;;;;;;6118670;23;20331;-64
2022/09/16 06:09:28;;;;;;;7.90;1.95;;;12.50;99.90;;;;;;6144545;23;20334;-64
2022/09/16 06:11:55;;;;;;;14.30;2.88;;;12.60;99.90;;;;;;6145391;23;20017;-64
2022/09/16 06:14:21;;;;;;;15.10;2.55;;;12.60;99.90;;;;;;6144019;23;20079;-65
2022/09/16 06:16:48;;;;;;;16.63;3.42;;;12.60;99.90;;;;;;6143868;23;20021;-64
2022/09/16 06:19:16;;;;;;;8.50;2.70;;;12.60;99.90;;;;;;6146148;23;20092;-65
2022/09/16 06:21:42;;;;;;;8.05;2.08;;;;;;;;;;6141454;23;20400;-64
2022/09/16 06:24:09;;;;;;;5.43;2.35;;;;;;;;;;6141853;23;20361;-64
2022/09/16 06:26:36;;;;;;;6.88;3.00;;;;;;;;;;6143948;23;20445;-64
2022/09/16 06:29:04;;;;;;;5.68;2.47;;;;;;;;;;6141415;23;20025;-64
2022/09/16 06:31:30;;;;;;;9.00;2.83;;;;;;;;;;6145285;23;20462;-64
2022/09/16 06:33:57;;;;;;;14.80;2.85;;;;;;;;;;6143812;23;20445;-65
2022/09/16 06:36:24;;;;;;;6.63;2.90;;;;;;;;;;6142079;23;20048;-65
2022/09/16 06:38:50;;;;;;;17.15;4.20;;;;;;;;;;6144323;23;20064;-64
2022/09/16 06:41:17;;;;;;;9.90;3.70;;;;;;;;;;6144857;23;20017;-64
2022/09/16 06:43:44;;;;;;;13.75;3.83;;;;;;;;;;6144767;23;20111;-65
2022/09/16 06:46:15;;;;;;;6.25;2.53;;;;;;;;;;6144923;23;20381;-64
2022/09/16 06:48:42;;;;;;;5.65;2.17;;;;;;;;;;6144371;23;20021;-64
2022/09/16 06:51:13;;;;;;;9.43;2.58;;;;;;;;;;6144196;23;20029;-64
2022/09/16 06:53:39;;;;;;;7.38;1.77;;;;;;;;;;6145750;23;20010;-64
2022/09/16 06:56:07;;;;;;;11.05;3.35;;;;;;;;;;6145827;23;20014;-64
2022/09/16 06:58:34;;;;;;;10.93;2.67;;;;;;;;;;6145856;23;20021;-64
2022/09/16 07:01:11;;;;;;;8.50;2.65;;;;;;;;;;6145384;23;20105;-65
2022/09/16 07:03:38;;;;;;;7.50;1.98;;;;;;;;;;6145829;23;20084;-64
2022/09/16 07:06:04;;;;;;;8.25;2.45;;;;;;;;;;6144333;23;20096;-64
2022/09/16 07:08:31;;;;;;;8.32;2.70;;;;;;;;;;6145383;23;20018;-64
2022/09/16 07:11:08;;;;;;;10.70;2.47;;;;;;;;;;6145329;23;20087;-64
2022/09/16 07:13:34;;;;;;;8.40;2.55;;;;;;;;;;6146013;23;20017;-65
2022/09/16 07:16:01;;;;;;;7.53;2.35;;;;;;;;;;6145196;23;20029;-64
2022/09/16 07:18:29;;;;;;;6.15;1.85;;;;;;;;;;6144917;23;20089;-64
2022/09/16 07:21:02;;;;;;;6.25;2.00;;;;;;;;;;6144660;23;20064;-64
2022/09/16 07:23:32;;;;;;;10.65;2.45;;;;;;;;;;6144227;23;20123;-65
2022/09/16 07:26:05;;;;;;;6.40;2.58;;;;;;;;;;6144960;23;20463;-64
2022/09/16 07:28:32;;;;;;;7.82;2.70;;;;;;;;;;6145496;23;20020;-64
2022/09/16 07:31:02;;;;;;;8.88;2.10;;;;;;;;;;6146074;23;20028;-64
2022/09/16 07:33:29;;;;;;;9.02;3.00;;;;;;;;;;6145295;23;20055;-64
2022/09/16 07:35:59;;;;;;;7.20;2.10;;;;;;;;;;6143302;23;20088;-64
2022/09/16 07:38:26;;;;;;;11.75;2.47;;;;;;;;;;6144966;23;20153;-64
2022/09/16 07:40:52;;;;;;;5.75;2.38;;;;;;;;;;6145342;23;20350;-64
2022/09/16 07:43:18;;;;;;;13.43;2.90;;;;;;;;;;6145003;23;20185;-64
2022/09/16 07:45:44;;;;;;;11.05;2.47;;;;;;;;;;6144782;23;20109;-64
2022/09/16 07:48:10;;;;;;;11.32;3.38;;;;;;;;;;6144127;23;20164;-64
2022/09/16 07:50:36;;;;;;;11.52;3.95;;;;;;;;;;6141869;23;20021;-64
2022/09/16 07:53:03;;;;;;;11.45;3.95;;;;;;;;;;6144028;23;20116;-65
2022/09/16 07:55:29;;;;;;;12.55;3.83;;;;;;;;;;6142337;23;20080;-64
2022/09/16 07:57:55;;;;;;;15.95;3.95;;;;;;;;;;6143903;23;20130;-64
2022/09/16 08:00:21;;;;;;;12.60;3.47;;;;;;;;;;6144756;23;20088;-64
2022/09/16 08:02:47;;;;;;;10.45;3.00;;;;;;;;;;6142461;23;20096;-64
2022/09/16 08:05:15;;;;;;;11.48;2.90;;;;;;;;;;6144732;23;20472;-64
2022/09/16 08:07:41;;;;;;;10.68;3.47;;;;;;;;;;6143832;23;20024;-64
2022/09/16 08:10:07;;;;;;;9.65;3.28;;;;;;;;;;6142340;23;20048;-64
2022/09/16 08:12:34;;;;;;;10.73;3.08;;;;;;;;;;6144152;23;20021;-65
2022/09/16 08:15:00;;;;;;;9.77;2.72;;;;;;;;;;6145532;23;20021;-64
2022/09/16 08:17:26;;;;;;;9.10;1.92;;;;;;;;;;6142723;23;20017;-64
2022/09/16 08:19:53;;;;;;;9.43;2.42;;;;;;;;;;6144285;23;20036;-64
2022/09/16 08:22:19;;;;;;;8.27;2.03;;;;;;;;;;6143028;23;20111;-64
2022/09/16 08:24:44;;;;;;;4.78;1.80;;;12.60;99.90;;;;;;6142178;23;20393;-65
2022/09/16 08:27:10;;;;;;;8.82;2.22;;;13.90;99.20;;;;;;6141837;23;20009;-64
2022/09/16 08:29:36;;;;;;;8.15;1.88;;;;;;;;;;6118228;23;20072;-64
2022/09/16 08:32:03;;;;;;;9.32;2.05;;;;;;;;;;6143173;23;20025;-64
2022/09/16 08:34:29;;;;;;;11.27;2.85;;;;;;;;;;6144500;23;20694;-64
2022/09/16 08:36:55;;;;;;;13.02;2.75;;;;;;;;;;6142078;23;20690;-64
2022/09/16 08:39:21;;;;;;;7.25;2.63;;;;;;;;;;6145380;23;20021;-65
2022/09/16 08:42:06;;;;;;;9.65;3.33;;;;;;;;;;6144765;23;20067;-64
2022/09/16 08:44:32;;;;;;;7.95;2.47;;;;;;;;;;6145797;23;20230;-64
2022/09/16 08:47:03;;;;;;;8.82;2.90;;;;;;;;;;6146379;23;20438;-64
2022/09/16 08:49:29;;;;;;;6.32;2.00;;;;;;;;;;6146672;23;20276;-64
2022/09/16 08:51:58;;;;;;;10.45;1.95;;;;;;;;;;6144116;23;20087;-65
2022/09/16 08:54:27;;;;;;;15.52;2.80;;;;;;;;;;6144814;23;20195;-64
2022/09/16 08:56:54;;;;;;;8.88;2.30;;;;;;;;;;6146609;23;20152;-64
2022/09/16 08:59:23;;;;;;;8.93;1.85;;;;;;;;;;6146199;23;20029;-64
2022/09/16 09:02:02;;;;;;;5.40;1.60;;;;;;;;;;6144855;23;20014;-64
2022/09/16 09:04:29;;;;;;;9.88;2.35;;;;;;;;;;6144287;23;20010;-64
2022/09/16 09:07:07;;;;;;;8.82;2.58;;;;;;;;;;6143158;23;20016;-64
2022/09/16 09:09:48;;;;;;;6.88;2.05;;;;;;;;;;6143076;23;20193;-64
2022/09/16 09:12:22;;;;;;;7.47;2.38;;;;;;;;;;6146670;23;20068;-64
2022/09/16 09:14:51;;;;;;;10.98;2.90;;;;;;;;;;6146623;23;20021;-64
2022/09/16 09:17:30;;;;;;;8.73;2.17;;;;;;;;;;6145273;23;20028;-63
2022/09/16 09:20:11;;;;;;;13.50;2.85;;;;;;;;;;6145910;23;20480;-64
2022/09/16 09:22:56;;;;;;;8.73;2.70;;;;;;;;;;6144024;23;20018;-64
2022/09/16 09:25:25;;;;;;;9.93;3.33;;;;;;;;;;6145702;23;20068;-64
2022/09/16 09:27:52;;;;;;;4.90;2.22;;;;;;;;;;6145859;23;20013;-64
2022/09/16 09:30:25;;;;;;;8.85;2.55;;;;;;;;;;6145129;23;20384;-65
2022/09/16 09:33:09;;;;;;;17.80;2.78;;;;;;;;;;6142913;23;20018;-64
2022/09/16 09:35:36;;;;;;;11.35;2.80;;;;;;;;;;6143988;23;20010;-64
2022/09/16 09:38:05;;;;;;;14.18;2.85;;;;;;;;;;6144123;23;20129;-65
2022/09/16 09:40:47;;;;;;;4.57;2.05;;;;;;;;;;6143294;23;20457;-64
2022/09/16 09:43:19;;;;;;;8.90;2.23;;;;;;;;;;6143647;23;20021;-64
2022/09/16 09:45:57;;;;;;;13.40;2.87;;;;;;;;;;6143727;23;20311;-64
2022/09/16 09:48:30;;;;;;;7.38;2.50;;;;;;;;;;6142699;23;20076;-64
2022/09/16 09:51:01;;;;;;;10.27;2.90;;;;;;;;;;6143851;23;20048;-64
2022/09/16 09:53:40;;;;;;;10.00;2.10;;;;;;;;;;6144437;23;20021;-64
2022/09/16 09:56:13;;;;;;;7.50;1.77;;;;;;;;;;6143427;23;20315;-64
2022/09/16 09:58:43;;;;;;;6.78;2.60;;;;;;;;;;6144378;23;20233;-64
2022/09/16 10:01:10;;;;;;;6.10;1.85;;;;;;;;;;6145200;23;20017;-64
2022/09/16 10:03:39;;;;;;;6.93;2.63;;;;;;;;;;6142066;23;20024;-65
2022/09/16 10:06:05;;;;;;;7.55;1.95;;;;;;;;;;6143203;23;20234;-64
2022/09/16 10:08:34;;;;;;;8.80;3.00;;;;;;;;;;6143086;23;20220;-65
2022/09/16 10:11:02;;;;;;;8.07;2.05;;;;;;;;;;6143515;23;20014;-64
2022/09/16 10:13:29;;;;;;;10.27;2.45;;;;;;;;;;6144836;23;20020;-65
2022/09/16 10:16:11;;;;;;;10.32;2.25;;;;;;;;;;6141432;23;20018;-65
2022/09/16 10:18:37;;;;;;;6.00;2.10;;;;;;;;;;6146057;23;20013;-65
2022/09/16 10:21:06;;;;;;;8.02;2.22;;;;;;;;;;6143084;23;20021;-65
2022/09/16 10:23:33;;;;;;;8.98;2.30;;;;;;;;;;6144192;23;20173;-65
2022/09/16 10:26:25;;;;;;;10.18;2.58;;;;;;;;;;6143215;23;20023;-65
2022/09/16 10:29:03;;;;;;;5.07;1.70;;;;;;;;;;6138433;23;20365;-65
2022/09/16 10:31:36;;;;;;;6.43;1.90;;;;;;;;;;6142262;23;20021;-65
2022/09/16 10:34:04;;;;;;;9.38;2.38;;;;;;;;;;6143716;23;20089;-65
2022/09/16 10:36:34;;;;;;;9.52;2.85;;;;;;;;;;6141082;23;20445;-65
2022/09/16 10:39:01;;;;;;;8.05;2.08;;;;;;;;;;6143455;23;20022;-64
2022/09/16 10:41:33;;;;;;;5.95;1.88;;;;;;;;;;6144063;23;20337;-65
2022/09/16 10:44:00;;;;;;;7.65;2.13;;;;;;;;;;6143805;23;20334;-65
2022/09/16 10:46:28;;;;;;;6.20;2.35;;;;;;;;;;6143670;23;20024;-65
2022/09/16 10:48:56;;;;;;;9.13;2.53;;;;;;;;;;6143771;23;20093;-65
2022/09/16 10:51:22;;;;;;;13.60;2.58;;;;;;;;;;6142551;23;20049;-65
2022/09/16 10:53:53;;;;;;;10.95;3.05;;;;;;;;;;6143651;23;20543;-64
2022/09/16 10:56:21;;;;;;;7.68;2.20;;;;;;;;;;6142352;23;20350;-65
2022/09/16 10:58:47;;;;;;;6.78;1.95;;;;;;;;;;6144110;23;20017;-65
2022/09/16 11:01:30;;;;;;;8.15;1.95;;;;;;;;;;6143886;23;20059;-65
2022/09/16 11:04:05;;;;;;;5.78;2.00;;;;;;;;;;6145118;23;20071;-64
2022/09/16 11:06:31;;;;;;;10.93;2.13;;;;;;;;;;6142970;23;20009;-65
2022/09/16 11:09:27;;;;;;;6.25;1.90;;;;;;;;;;6142931;23;20028;-65
2022/09/16 11:12:13;;;;;;;8.45;3.00;;;;;;;;;;6118225;23;20025;-65
2022/09/16 11:14:39;;;;;;;7.03;2.22;;;;;;;;;;6143378;23;20017;-65
2022/09/16 11:17:05;;;;;;;12.95;2.38;;;;;;;;;;6142127;23;20402;-65
2022/09/16 11:19:50;;;;;;;12.52;2.55;;;;;;;;;;6143297;23;20018;-65
2022/09/16 11:22:29;;;;;;;5.43;1.95;;;;;;;;;;6142989;23;20340;-65
2022/09/16 11:25:08;;;;;;;7.28;2.03;;;;;;;;;;6143461;23;20021;-65
2022/09/16 11:27:43;;;;;;;7.28;1.92;;;;;;;;;;6143947;23;20207;-65
2022/09/16 11:30:12;;;;;;;5.35;1.92;;;;;;;;;;6143041;23;20013;-65
2022/09/16 11:32:47;;;;;;;8.90;2.20;;;;;;;;;;6144151;23;20021;-65
2022/09/16 11:35:33;;;;;;;7.63;2.35;;;;;;;;;;6142335;23;20017;-66
2022/09/16 11:38:02;;;;;;;8.23;2.50;;;;;;;;;;6143611;23;20052;-65
2022/09/16 11:40:38;;;;;;;9.55;2.67;;;;;;;;;;6143611;23;20412;-65
2022/09/16 11:43:13;;;;;;;11.65;3.03;;;;;;;;;;6143454;23;20060;-65
2022/09/16 11:45:47;;;;;;;10.25;3.20;;;;;;;;;;6141139;23;20088;-65
2022/09/16 11:48:22;;;;;;;9.27;3.15;;;;;;;;;;6143210;23;20018;-65
2022/09/16 11:50:55;;;;;;;6.95;2.22;;;;;;;;;;6142905;23;20033;-65
2022/09/16 11:53:33;;;;;;;13.35;2.83;;;;;;;;;;6141028;23;20025;-65
2022/09/16 11:56:02;;;;;;;7.88;2.80;;;;;;;;;;6143272;23;20457;-65
2022/09/16 11:58:41;;;;;;;9.13;3.20;;;;;;;;;;6144350;23;20014;-65
2022/09/16 12:01:30;;;;;;;8.73;2.92;;;;;;;;;;6143371;23;20480;-66
2022/09/16 12:04:02;;;;;;;13.23;3.33;;;;;;;;;;6088199;23;20013;-65
2022/09/16 12:06:33;;;;;;;8.45;3.10;;;;;;;;;;6142405;23;20013;-65
2022/09/16 12:09:17;;;;;;;10.48;3.03;;;;;;;;;;6142911;23;20072;-66
2022/09/16 12:11:45;;;;;;;10.48;2.45;;;;;;;;;;6143734;23;20017;-66
2022/09/16 12:14:23;;;;;;;10.30;3.05;;;;;;;;;;6144844;23;20029;-65
2022/09/16 12:16:52;;;;;;;12.73;3.13;;;;;;;;;;6145545;23;20017;-65
2022/09/16 12:19:22;;;;;;;10.43;2.78;;;;;;;;;;6145525;23;20027;-65
2022/09/16 12:21:52;;;;;;;14.40;3.28;;;;;;;;;;6144401;23;20116;-65
2022/09/16 12:24:34;;;;;;;7.65;2.50;;;;;;;;;;6145083;23;20521;-65
2022/09/16 12:27:03;;;;;;;20.58;4.43;;;;;;;;;;6144802;23;20014;-66
2022/09/16 12:30:02;;;;;;;9.38;2.83;;;;;;;;;;6145322;23;20021;-65
2022/09/16 12:32:37;;;;;;;14.52;3.72;;;;;;;;;;6078980;23;20308;-65
2022/09/16 12:35:11;;;;;;;11.80;3.60;;;;;;;;;;6145088;23;20440;-66
2022/09/16 12:37:41;;;;;;;12.30;4.60;;;;;;;;;;6142921;23;20017;-65
2022/09/16 12:40:15;;;;;;;8.02;2.78;;;;;;;;;;6145056;23;20093;-65
2022/09/16 12:43:00;;;;;;;10.30;3.78;;;;;;;;;;6145059;23;20039;-65
2022/09/16 12:45:35;;;;;;;9.77;3.35;;;;;;;;;;6145753;23;20110;-65
2022/09/16 12:48:20;;;;;;;11.23;3.63;;;;;;;;;;6146172;23;20338;-66
2022/09/16 12:50:46;;;;;;;10.50;2.63;;;;;;;;;;6145661;23;20053;-65
2022/09/16 12:53:31;;;;;;;9.80;3.53;;;;;;;;;;6138170;23;20025;-65
2022/09/16 12:56:16;;;;;;;7.53;2.25;;;;;;;;;;6141481;23;20021;-65
2022/09/16 12:58:48;;;;;;;9.55;3.25;;;;;;;;;;6142736;23;20021;-65
2022/09/16 13:01:32;;;;;;;11.23;2.83;;;;;;;;;;6142528;23;20404;-65
2022/09/16 13:04:17;;;;;;;12.15;2.88;;;;;;;;;;6143294;23;20089;-65
2022/09/16 13:06:51;;;;;;;8.57;2.28;;;;;;;;;;6140328;23;20084;-66
2022/09/16 13:09:37;;;;;;;12.82;3.03;;;;;;;;;;6141583;23;20309;-65
2022/09/16 13:12:06;;;;;;;7.68;2.42;;;;;;;;;;6141767;23;20028;-65
2022/09/16 13:14:34;;;;;;;9.50;4.05;;;;;;;;;;6142252;23;20341;-65
2022/09/16 13:17:01;;;;;;;8.25;3.15;;;;;;;;;;6142654;23;20120;-65
2022/09/16 13:20:06;;;;;;;13.32;3.40;;;;;;;;;;6141794;23;20338;-65
2022/09/16 13:22:41;;;;;;;8.73;3.08;;;;;;;;;;6023243;23;20015;-64
2022/09/16 13:25:25;;;;;;;9.10;3.45;;;;;;;;;;6000384;23;20050;-65
2022/09/16 13:27:57;;;;;;;15.43;3.42;;;;;;;;;;6092747;23;20015;-64
2022/09/16 13:30:41;;;;;;;11.68;3.45;;;;;;;;;;6143762;23;20021;-64
2022/09/16 13:33:13;;;;;;;11.73;4.63;;;;;;;;;;6143645;23;20049;-64
2022/09/16 13:35:44;;;;;;;8.65;2.58;;;;;;;;;;6141745;23;20080;-65
2022/09/16 13:38:16;;;;;;;11.05;3.08;;;;;;;;;;6143876;23;20017;-65
2022/09/16 13:40:52;;;;;;;9.82;2.97;;;;;;;;;;6144444;23;20017;-65
2022/09/16 13:43:28;;;;;;;13.45;3.45;;;;;;;;;;6146858;23;20017;-64
2022/09/16 13:46:05;;;;;;;9.45;3.50;;;;;;;;;;6145497;23;20080;-64
2022/09/16 13:48:35;;;;;;;11.02;3.38;;;;;;;;;;6145335;23;20019;-65
2022/09/16 13:51:06;;;;;;;13.93;4.03;;;;;;;;;;6144345;23;20053;-65
2022/09/16 13:53:42;;;;;;;12.48;4.22;;;;;;;;;;6145097;23;20017;-64
2022/09/16 13:56:27;;;;;;;13.23;3.45;;;;;;;;;;6145369;23;20020;-65
2022/09/16 13:59:00;;;;;;;10.93;4.05;;;;;;;;;;6145437;23;20021;-65
2022/09/16 14:01:36;;;;;;;17.45;2.97;;;;;;;;;;6144995;23;20036;-64
2022/09/16 14:04:25;;;;;;;12.45;3.22;;;;;;;;;;6145258;23;20032;-64
2022/09/16 14:06:51;;;;;;;9.45;2.85;;;;;;;;;;6144640;23;20041;-64
2022/09/16 14:09:43;;;;;;;11.00;2.72;;;;;;;;;;6145469;23;20385;-65
2022/09/16 14:12:09;;;;;;;10.48;2.90;;;;;;;;;;6099161;23;20057;-65
2022/09/16 14:14:36;;;;;;;7.82;2.90;;;;;;;;;;6144374;23;20022;-65
2022/09/16 14:17:04;;;;;;;15.13;4.45;;;;;;;;;;6144762;23;20359;-65
2022/09/16 14:19:40;;;;;;;10.60;2.60;;;;;;;;;;6142277;23;20052;-65
2022/09/16 14:22:13;;;;;;;8.45;3.10;;;;;;;;;;6140505;23;20311;-65
2022/09/16 14:24:40;;;;;;;26.27;4.68;;;;;;;;;;6145183;23;20017;-65
2022/09/16 14:27:18;;;;;;;8.77;2.92;;;;;;;;;;6144524;23;20016;-64
2022/09/16 14:29:57;;;;;;;16.52;3.72;;;;;;;;;;6145418;23;20345;-65
2022/09/16 14:32:33;;;;;;;12.07;4.25;;;;;;;;;;6144251;23;20022;-64
2022/09/16 14:35:01;;;;;;;13.50;4.25;;;;;;;;;;6140003;23;20113;-64
2022/09/16 14:37:28;;;;;;;10.40;3.85;;;;;;;;;;6139563;23;20017;-65